Time;durP1;ratioP1;P1;durP2;ratioP2;P2;SDS_P1;SDS_P2;PMS_P1;PMS_P2;Temp;Humidity;BMP_temperature;BMP_pressure;BME280_temperature;BME280_humidity;BME280_pressure;Samples;Min_cycle;Max_cycle;Signal;HPM_P1;HPM_P2
2022/01/09 00:00:14;;;;;;;55.85;17.20;;;;;;;;;;4914853;28;20346;-70
2022/01/09 00:02:40;;;;;;;61.63;18.33;;;;;;;;;;4914624;28;20026;-70
2022/01/09 00:05:06;;;;;;;50.40;17.77;;;;;;;;;;4932651;28;20456;-70
2022/01/09 00:07:32;;;;;;;50.58;17.33;;;;;;;;;;4932097;28;20445;-71
2022/01/09 00:09:57;;;;;;;54.72;17.42;;;;;;;;;;4932123;28;20421;-70
2022/01/09 00:12:25;;;;;;;54.65;17.27;;;;;;;;;;4931641;28;20319;-70
2022/01/09 00:14:51;;;;;;;52.38;17.52;;;;;;;;;;4931628;28;20457;-70
2022/01/09 00:17:17;;;;;;;50.10;17.45;;;;;;;;;;4913933;28;20382;-70
2022/01/09 00:19:42;;;;;;;55.53;17.15;;;;;;;;;;4913868;28;20490;-70
2022/01/09 00:22:08;;;;;;;48.15;17.58;;;;;;;;;;4931311;28;20603;-70
2022/01/09 00:24:33;;;;;;;57.47;16.92;;;;;;;;;;4914201;28;20357;-70
2022/01/09 00:26:58;;;;;;;53.00;16.48;;;;;;;;;;4930952;28;20327;-70
2022/01/09 00:29:24;;;;;;;58.25;17.63;;;;;;;;;;4914183;28;20470;-70
2022/01/09 00:31:49;;;;;;;54.22;17.60;;;;;;;;;;4931400;28;20441;-71
2022/01/09 00:34:14;;;;;;;54.13;17.35;;;;;;;;;;4931181;28;20303;-70
2022/01/09 00:36:40;;;;;;;57.38;17.48;;;;;;;;;;4914138;28;20377;-70
2022/01/09 00:39:05;;;;;;;56.10;18.50;;;;;;;;;;4931262;28;20471;-71
2022/01/09 00:41:30;;;;;;;54.72;17.25;;;;;;;;;;4913229;28;20353;-70
2022/01/09 00:43:56;;;;;;;54.08;16.60;;;;;;;;;;4931155;28;20438;-70
2022/01/09 00:46:22;;;;;;;50.67;16.45;;;;;;;;;;4931049;28;20317;-70
2022/01/09 00:48:47;;;;;;;58.97;17.75;;;;;;;;;;4931196;28;20418;-70
2022/01/09 00:51:12;;;;;;;44.00;16.45;;;;;;;;;;4930516;28;20573;-70
2022/01/09 00:53:38;;;;;;;50.63;17.25;;;;;;;;;;4931185;28;20385;-70
2022/01/09 00:56:03;;;;;;;46.70;16.58;;;;;;;;;;4913964;28;20472;-70
2022/01/09 00:58:28;;;;;;;51.75;16.60;;;;;;;;;;4912867;28;20437;-71
2022/01/09 01:00:54;;;;;;;44.97;15.65;;;;;;;;;;4934789;28;20438;-70
2022/01/09 01:03:20;;;;;;;44.67;16.48;;;;;;;;;;4938681;28;20401;-70
2022/01/09 01:05:45;;;;;;;53.38;18.25;;;;;;;;;;4930508;28;20500;-70
2022/01/09 01:08:10;;;;;;;47.67;18.10;;;;;;;;;;4932577;28;20559;-70
2022/01/09 01:10:36;;;;;;;46.30;16.88;;;;;;;;;;4930320;28;20389;-70
2022/01/09 01:13:02;;;;;;;52.08;17.52;;;;;;;;;;4912849;28;20497;-70
2022/01/09 01:15:27;;;;;;;48.38;17.27;;;;;;;;;;4913803;28;20431;-72
2022/01/09 01:17:53;;;;;;;46.05;16.52;;;;;;;;;;4930836;28;20452;-70
2022/01/09 01:20:22;;;;;;;46.38;16.58;;;;;;;;;;4930408;28;20401;-70
2022/01/09 01:22:50;;;;;;;47.30;15.45;;;;;;;;;;4930262;28;20074;-71
2022/01/09 01:25:17;;;;;;;46.30;14.32;;;;;;;;;;4912935;28;20412;-70
2022/01/09 01:27:42;;;;;;;51.70;17.20;;;;;;;;;;4930519;28;20451;-70
2022/01/09 01:30:08;;;;;;;40.55;15.02;;;;;;;;;;4931325;28;20087;-70
2022/01/09 01:32:33;;;;;;;46.17;15.88;;;;;;;;;;4913046;28;20034;-70
2022/01/09 01:34:59;;;;;;;43.83;14.07;;;;;;;;;;4912891;28;20440;-70
2022/01/09 01:37:24;;;;;;;49.65;16.00;;;;;;;;;;4912511;28;20434;-71
2022/01/09 01:39:50;;;;;;;46.10;15.23;;;;;;;;;;4930528;28;20362;-70
2022/01/09 01:42:17;;;;;;;39.50;14.85;;;;;;;;;;4930264;28;20521;-70
2022/01/09 01:44:44;;;;;;;46.47;15.60;;;;;;;;;;4912750;28;20464;-70
2022/01/09 01:47:09;;;;;;;50.47;16.70;;;;;;;;;;4929985;28;20053;-70
2022/01/09 01:49:35;;;;;;;44.33;15.73;;;;;;;;;;4929968;28;20441;-70
2022/01/09 01:52:00;;;;;;;39.90;13.88;;;;;;;;;;4912920;28;20465;-71
2022/01/09 01:54:27;;;;;;;45.85;15.57;;;;;;;;;;4915947;28;20561;-70
2022/01/09 01:56:52;;;;;;;40.15;15.63;;;;;;;;;;4934393;28;20438;-70
2022/01/09 01:59:18;;;;;;;40.72;15.07;;;;;;;;;;4916191;28;20504;-70
2022/01/09 02:01:43;;;;;;;41.42;15.43;;;;;;;;;;4933867;28;20026;-70
2022/01/09 02:04:08;;;;;;;46.15;15.95;;;;;;;;;;4935860;28;20026;-70
2022/01/09 02:06:34;;;;;;;37.65;13.88;;;;;;;;;;4916179;28;20449;-70
2022/01/09 02:09:00;;;;;;;38.90;15.63;;;;;;;;;;4916522;28;20325;-70
2022/01/09 02:11:26;;;;;;;48.65;15.98;;;;;;;;;;4916492;28;20405;-71
2022/01/09 02:13:51;;;;;;;49.67;15.00;;;;;;;;;;4916056;28;20303;-71
2022/01/09 02:16:17;;;;;;;41.00;16.00;;;;;;;;;;4933440;28;20397;-70
2022/01/09 02:18:44;;;;;;;44.22;15.57;;;;;;;;;;4933429;28;20507;-70
2022/01/09 02:21:10;;;;;;;40.50;14.32;;;;;;;;;;4916669;28;20421;-70
2022/01/09 02:23:39;;;;;;;42.83;16.40;;;;;;;;;;4933309;28;20426;-71
2022/01/09 02:26:05;;;;;;;48.20;14.65;;;;;;;;;;4916754;28;20421;-70
2022/01/09 02:28:30;;;;;;;43.30;14.55;;;;;;;;;;4915878;28;20339;-71
2022/01/09 02:30:55;;;;;;;33.90;14.50;;;;;;;;;;4916201;28;20472;-70
2022/01/09 02:33:21;;;;;;;41.80;15.68;;;;;;;;;;4933414;28;20422;-70
2022/01/09 02:35:52;;;;;;;43.80;14.93;;;;;;;;;;4915612;28;20057;-70
2022/01/09 02:38:19;;;;;;;41.47;13.23;;;;;;;;;;4916225;28;20457;-70
2022/01/09 02:40:49;;;;;;;40.58;14.30;;;;;;;;;;4915989;28;20442;-71
2022/01/09 02:43:14;;;;;;;38.83;14.73;;;;;;;;;;4916229;28;20511;-71
2022/01/09 02:45:40;;;;;;;36.88;14.18;;;;;;;;;;4933242;28;20469;-70
2022/01/09 02:48:08;;;;;;;34.95;13.77;;;;;;;;;;4933313;28;20496;-71
2022/01/09 02:50:39;;;;;;;36.60;14.15;;;;;;;;;;4933210;28;20442;-71
2022/01/09 02:53:16;;;;;;;36.95;13.23;;;;;;;;;;4915948;28;20396;-70
2022/01/09 02:55:42;;;;;;;48.35;14.48;;;;;;;;;;4917752;28;20526;-71
2022/01/09 02:58:08;;;;;;;40.58;13.95;;;;;;;;;;4934349;28;20377;-70
2022/01/09 03:00:36;;;;;;;35.72;15.48;;;;;;;;;;4934443;28;20064;-70
2022/01/09 03:03:02;;;;;;;41.87;14.10;;;;;;;;;;4934603;28;20444;-70
2022/01/09 03:05:29;;;;;;;40.15;13.82;;;;;;;;;;4951755;28;20353;-71
2022/01/09 03:07:55;;;;;;;40.28;14.77;;;;;;;;;;4934781;28;20034;-71
2022/01/09 03:10:21;;;;;;;32.10;12.82;;;;;;;;;;4934808;28;20449;-72
2022/01/09 03:12:48;;;;;;;42.20;15.23;;;;;;;;;;4953536;28;20030;-71
2022/01/09 03:15:14;;;;;;;39.67;13.80;;;;;;;;;;4934403;28;20491;-71
2022/01/09 03:17:40;;;;;;;38.15;13.93;;;;;;;;;;4934362;28;20512;-71
2022/01/09 03:20:09;;;;;;;42.83;14.02;;;;;;;;;;4934425;28;20443;-71
2022/01/09 03:22:34;;;;;;;38.00;13.00;;;;;;;;;;4934560;28;20345;-71
2022/01/09 03:24:59;;;;;;;37.78;14.10;;;;;;;;;;4934730;28;20030;-71
2022/01/09 03:27:25;;;;;;;36.42;13.98;;;;;;;;;;4933843;28;20368;-70
2022/01/09 03:29:50;;;;;;;38.30;14.00;;;;;;;;;;4951928;28;20045;-70
2022/01/09 03:32:15;;;;;;;41.20;13.55;;;;;;;;;;4951745;28;20354;-70
2022/01/09 03:34:41;;;;;;;42.05;14.02;;;;;;;;;;4934855;28;20460;-71
2022/01/09 03:37:06;;;;;;;43.03;14.00;;;;;;;;;;4934436;28;20338;-71
2022/01/09 03:39:32;;;;;;;41.97;13.80;;;;;;;;;;4951916;28;20458;-70
2022/01/09 03:41:59;;;;;;;44.40;14.73;;;;;;;;;;4951245;28;20345;-70
2022/01/09 03:44:25;;;;;;;36.58;14.13;;;;;;;;;;4933992;28;20045;-70
2022/01/09 03:46:51;;;;;;;36.78;13.90;;;;;;;;;;4917787;28;20473;-70
2022/01/09 03:49:16;;;;;;;32.30;14.27;;;;;;;;;;4951314;28;20428;-71
2022/01/09 03:51:44;;;;;;;33.50;12.82;;;;;;;;;;4951320;28;20034;-71
2022/01/09 03:54:09;;;;;;;34.22;12.20;;;;;;;;;;4934334;28;20117;-70
2022/01/09 03:56:35;;;;;;;41.55;13.70;;;;;;;;;;4952137;28;20048;-71
2022/01/09 03:59:00;;;;;;;37.95;12.77;;;;;;;;;;4950454;28;20361;-71
2022/01/09 04:01:26;;;;;;;35.40;12.98;;;;;;;;;;4933625;28;20508;-70
2022/01/09 04:03:51;;;;;;;38.33;13.13;;;;;;;;;;4933475;28;20049;-70
2022/01/09 04:06:18;;;;;;;32.28;12.80;;;;;;;;;;4951604;28;20504;-70
2022/01/09 04:08:43;;;;;;;35.50;12.98;;;;;;;;;;4934245;28;20432;-70
2022/01/09 04:11:09;;;;;;;37.88;13.48;;;;;;;;;;4934112;28;20427;-71
2022/01/09 04:13:36;;;;;;;31.23;12.68;;;;;;;;;;4933502;28;20393;-70
2022/01/09 04:16:02;;;;;;;31.13;12.63;;;;;;;;;;4951980;28;20026;-70
2022/01/09 04:18:28;;;;;;;35.80;12.52;;;;;;;;;;4952483;28;20057;-71
2022/01/09 04:20:54;;;;;;;34.30;12.82;;;;;;;;;;4950548;28;20021;-70
2022/01/09 04:23:20;;;;;;;38.50;14.23;;;;;;;;;;4950491;28;20100;-70
2022/01/09 04:25:46;;;;;;;37.13;14.05;;;;;;;;;;4933589;28;20095;-70
2022/01/09 04:28:13;;;;;;;27.70;12.15;;;;;;;;;;4950253;28;20038;-71
2022/01/09 04:30:38;;;;;;;38.65;12.30;;;;;;;;;;4951072;28;20049;-70
2022/01/09 04:33:04;;;;;;;40.15;13.98;;;;;;;;;;4932647;28;20439;-70
2022/01/09 04:35:29;;;;;;;38.97;12.88;;;;;;;;;;4951653;28;20360;-70
2022/01/09 04:37:55;;;;;;;33.63;12.55;;;;;;;;;;4932852;28;20349;-69
2022/01/09 04:40:21;;;;;;;37.17;12.00;;;;;;;;;;4933184;28;20095;-71
2022/01/09 04:42:54;;;;;;;31.40;12.70;;;;;;;;;;4951362;28;20056;-71
2022/01/09 04:45:20;;;;;;;29.02;11.20;;;;;;;;;;4933045;28;20299;-69
2022/01/09 04:47:48;;;;;;;27.85;12.35;;;;;;;;;;4932641;28;20340;-70
2022/01/09 04:50:20;;;;;;;32.33;12.10;;;;;;;;;;4950301;28;20364;-70
2022/01/09 04:52:46;;;;;;;29.90;11.38;;;;;;;;;;4933206;28;20492;-71
2022/01/09 04:55:11;;;;;;;37.15;12.77;;;;;;;;;;4932921;28;20112;-70
2022/01/09 04:57:36;;;;;;;36.10;12.32;;;;;;;;;;4932666;28;20468;-70
2022/01/09 05:00:06;;;;;;;26.42;12.73;;;;;;;;;;4949733;28;20485;-70
2022/01/09 05:02:32;;;;;;;29.80;13.05;;;;;;;;;;4933021;28;20473;-70
2022/01/09 05:04:58;;;;;;;30.55;11.65;;;;;;;;;;4932760;28;20341;-70
2022/01/09 05:07:23;;;;;;;30.83;12.48;;;;;;;;;;4950153;28;20452;-70
2022/01/09 05:09:48;;;;;;;36.03;11.80;;;;;;;;;;4916958;28;20540;-70
2022/01/09 05:12:13;;;;;;;34.97;12.55;;;;;;;;;;4949932;28;20385;-70
2022/01/09 05:14:39;;;;;;;33.03;11.88;;;;;;;;;;4950625;28;20025;-70
2022/01/09 05:17:04;;;;;;;28.63;11.38;;;;;;;;;;4949888;28;20456;-69
2022/01/09 05:19:32;;;;;;;34.72;12.52;;;;;;;;;;4932582;28;20058;-70
2022/01/09 05:21:58;;;;;;;26.20;10.95;;;;;;;;;;4949366;28;20347;-70
2022/01/09 05:24:24;;;;;;;33.13;12.38;;;;;;;;;;4949748;28;20344;-72
2022/01/09 05:26:49;;;;;;;25.55;11.57;;;;;;;;;;4950315;28;20425;-69
2022/01/09 05:29:14;;;;;;;28.40;10.15;;;;;;;;;;4932456;28;20065;-73
2022/01/09 05:31:40;;;;;;;27.25;11.90;;;;;;;;;;4949636;28;20061;-70
2022/01/09 05:34:06;;;;;;;31.55;11.98;;;;;;;;;;4949913;28;20524;-70
2022/01/09 05:36:31;;;;;;;29.75;11.70;;;;;;;;;;4949503;28;20041;-69
2022/01/09 05:38:56;;;;;;;28.35;11.38;;;;;;;;;;4949548;28;20484;-69
2022/01/09 05:41:22;;;;;;;32.85;11.10;;;;;;;;;;4932130;28;20325;-69
2022/01/09 05:43:48;;;;;;;33.45;11.38;;;;;;;;;;4950174;28;20452;-70
2022/01/09 05:46:14;;;;;;;29.80;11.10;;;;;;;;;;4932188;28;20444;-69
2022/01/09 05:48:39;;;;;;;33.33;12.52;;;;;;;;;;4949706;28;20437;-69
2022/01/09 05:51:05;;;;;;;33.00;10.40;;;;;;;;;;4949488;28;20326;-70
2022/01/09 05:53:30;;;;;;;29.45;11.98;;;;;;;;;;4949341;28;20345;-70
2022/01/09 05:55:55;;;;;;;32.53;10.98;;;;;;;;;;4932735;28;20473;-70
2022/01/09 05:58:20;;;;;;;26.13;11.23;;;;;;;;;;4948865;28;20394;-69
2022/01/09 06:00:46;;;;;;;32.63;11.23;;;;;;;;;;4949896;28;20479;-70
2022/01/09 06:03:11;;;;;;;29.92;11.15;;;;;;;;;;4949320;28;20429;-69
2022/01/09 06:05:36;;;;;;;30.23;10.13;;;;;;;;;;4949792;28;20437;-70
2022/01/09 06:08:02;;;;;;;25.85;10.40;;;;;;;;;;4949472;28;20349;-69
2022/01/09 06:10:27;;;;;;;25.00;10.63;;;;;;;;;;4950185;28;20318;-69
2022/01/09 06:12:52;;;;;;;27.63;10.50;;;;;;;;;;4932140;28;20123;-70
2022/01/09 06:15:18;;;;;;;29.88;12.02;;;;;;;;;;4949354;28;20403;-70
2022/01/09 06:17:44;;;;;;;32.53;11.80;;;;;;;;;;4931845;28;20034;-69
2022/01/09 06:20:11;;;;;;;32.05;10.55;;;;;;;;;;4931290;28;20349;-70
2022/01/09 06:22:37;;;;;;;24.15;10.27;;;;;;;;;;4948825;28;20080;-72
2022/01/09 06:25:04;;;;;;;23.63;9.27;;;;;;;;;;4931079;28;20065;-69
2022/01/09 06:27:29;;;;;;;22.08;9.75;;;;;;;;;;4949915;28;20471;-70
2022/01/09 06:29:55;;;;;;;28.75;10.90;;;;;;;;;;4931622;28;20467;-69
2022/01/09 06:32:20;;;;;;;23.25;9.63;;;;;;;;;;4949375;28;20477;-69
2022/01/09 06:34:45;;;;;;;24.48;9.60;;;;;;;;;;4950288;28;20513;-69
2022/01/09 06:37:12;;;;;;;31.35;10.48;;;;;;;;;;4949711;28;20033;-70
2022/01/09 06:39:38;;;;;;;22.40;9.48;;;;;;;;;;4933043;28;20030;-69
2022/01/09 06:42:03;;;;;;;26.67;11.55;;;;;;;;;;4935123;28;20052;-69
2022/01/09 06:44:29;;;;;;;29.90;10.88;;;;;;;;;;4934676;28;20457;-70
2022/01/09 06:46:54;;;;;;;27.20;10.32;;;;;;;;;;4935041;28;20494;-69
2022/01/09 06:49:19;;;;;;;26.35;10.40;;;;;;;;;;4935260;28;20460;-70
2022/01/09 06:51:45;;;;;;;24.55;9.93;;;;;;;;;;4952726;28;20369;-70
2022/01/09 06:54:10;;;;;;;26.58;10.40;;;;;;;;;;4918283;28;20034;-70
2022/01/09 06:56:35;;;;;;;24.40;11.10;;;;;;;;;;4952574;28;20321;-70
2022/01/09 06:59:01;;;;;;;27.85;10.88;;;;;;;;;;4952403;28;20427;-69
2022/01/09 07:01:26;;;;;;;26.45;9.70;;;;;;;;;;4951752;28;20476;-70
2022/01/09 07:03:51;;;;;;;27.15;9.48;;;;;;;;;;4952130;28;20342;-70
2022/01/09 07:06:17;;;;;;;25.70;9.57;;;;;;;;;;4952725;28;20410;-70
2022/01/09 07:08:43;;;;;;;26.85;11.57;;;;;;;;;;4951903;28;20336;-70
2022/01/09 07:11:08;;;;;;;28.63;10.73;;;;;;;;;;4953820;28;20337;-70
2022/01/09 07:13:34;;;;;;;30.05;10.27;;;;;;;;;;4934860;28;20112;-69
2022/01/09 07:15:59;;;;;;;23.88;9.55;;;;;;;;;;4952082;28;20071;-70
2022/01/09 07:18:24;;;;;;;26.75;10.60;;;;;;;;;;4952595;28;20037;-70
2022/01/09 07:20:50;;;;;;;27.50;9.70;;;;;;;;;;4934440;28;20516;-70
2022/01/09 07:23:16;;;;;;;29.27;11.07;;;;;;;;;;4934311;28;20440;-70
2022/01/09 07:25:42;;;;;;;25.55;10.80;;;;;;;;;;4934619;28;20437;-69
2022/01/09 07:28:07;;;;;;;29.45;11.10;;;;;;;;;;4952263;28;20429;-71
2022/01/09 07:30:32;;;;;;;36.85;12.20;;;;;;;;;;4953661;28;20026;-70
2022/01/09 07:32:58;;;;;;;32.10;12.80;;;;;;;;;;4951776;28;20351;-70
2022/01/09 07:35:24;;;;;;;26.88;10.65;;;;;;;;;;4951240;28;20457;-70
2022/01/09 07:37:49;;;;;;;26.20;10.38;;;;;;;;;;4934528;28;20056;-70
2022/01/09 07:40:15;;;;;;;31.58;10.43;;;;;;;;;;4952864;28;20333;-70
2022/01/09 07:42:40;;;;;;;23.92;9.73;;;;;;;;;;4934302;28;20361;-70
2022/01/09 07:45:09;;;;;;;29.60;11.60;;;;;;;;;;4951755;28;20030;-69
2022/01/09 07:47:35;;;;;;;29.65;10.85;;;;;;;;;;4934072;28;20381;-71
2022/01/09 07:50:01;;;;;;;24.23;10.38;;;;;;;;;;4934234;28;20408;-71
2022/01/09 07:52:26;;;;;;;31.17;10.85;;;;;;;;;;4950600;28;20430;-69
2022/01/09 07:54:52;;;;;;;28.33;10.27;;;;;;;;;;4951286;28;20433;-70
2022/01/09 07:57:18;;;;;;;22.00;9.75;;;;;;;;;;4951286;28;20346;-70
2022/01/09 07:59:44;;;;;;;24.92;9.95;;;;;;;;;;4919855;28;20082;-70
2022/01/09 08:02:09;;;;;;;27.08;9.45;;;;;;;;;;4913999;28;20048;-70
2022/01/09 08:04:35;;;;;;;26.63;10.57;;;;;;;;;;4930721;28;20441;-70
2022/01/09 08:07:01;;;;;;;22.45;10.02;;;;;;;;;;4932699;28;20469;-70
2022/01/09 08:09:26;;;;;;;25.85;9.98;;;;;;;;;;4914338;28;20338;-70
2022/01/09 08:11:52;;;;;;;32.33;9.95;;;;;;;;;;4930291;28;20342;-70
2022/01/09 08:14:17;;;;;;;24.17;9.65;;;;;;;;;;4931704;28;20450;-70
2022/01/09 08:16:42;;;;;;;24.50;9.95;;;;;;;;;;4913976;28;20488;-70
2022/01/09 08:19:08;;;;;;;29.02;10.38;;;;;;;;;;4931138;28;20429;-70
2022/01/09 08:21:33;;;;;;;21.67;9.40;;;;;;;;;;4931864;28;20347;-70
2022/01/09 08:23:59;;;;;;;24.20;9.40;;;;;;;;;;4930122;28;20188;-70
2022/01/09 08:26:24;;;;;;;27.05;9.75;;;;;;;;;;4932455;28;20022;-71
2022/01/09 08:28:49;;;;;;;27.70;10.10;;;;;;;;;;4931337;28;20434;-70
2022/01/09 08:31:16;;;;;;;29.15;9.88;;;;;;;;;;4914002;28;20104;-70
2022/01/09 08:33:42;;;;;;;20.40;9.52;;;;;;;;;;4913688;28;20345;-71
2022/01/09 08:36:07;;;;;;;27.40;10.27;;;;;;;;;;4931373;28;20407;-70
2022/01/09 08:38:32;;;;;;;20.17;8.98;;;;;;;;;;4930984;28;20378;-70
2022/01/09 08:40:58;;;;;;;26.02;11.32;;;;;;;;;;4931137;28;20026;-70
2022/01/09 08:43:23;;;;;;;22.83;9.68;;;;;;;;;;4931608;28;20471;-70
2022/01/09 08:45:49;;;;;;;24.83;10.07;;;;;;;;;;4930687;28;20440;-70
2022/01/09 08:48:15;;;;;;;28.73;10.98;;;;;;;;;;4913500;28;20507;-71
2022/01/09 08:50:40;;;;;;;27.08;9.15;;;;;;;;;;4913721;28;20026;-71
2022/01/09 08:53:06;;;;;;;22.38;9.82;;;;;;;;;;4931435;28;20500;-71
2022/01/09 08:55:31;;;;;;;18.52;9.20;;;;;;;;;;4931126;28;20500;-71
2022/01/09 08:57:59;;;;;;;28.27;9.20;;;;;;;;;;4930680;28;20497;-72
2022/01/09 09:00:27;;;;;;;17.67;7.45;;;;;;;;;;4933032;28;20357;-71
2022/01/09 09:02:53;;;;;;;23.25;9.52;;;;;;;;;;4932176;28;20092;-71
2022/01/09 09:05:20;;;;;;;24.30;10.20;;;;;;;;;;4931971;28;20030;-71
2022/01/09 09:07:45;;;;;;;27.85;9.82;;;;;;;;;;4932564;28;20034;-71
2022/01/09 09:10:11;;;;;;;27.73;10.38;;;;;;;;;;4949712;28;20049;-71
2022/01/09 09:12:36;;;;;;;24.83;9.18;;;;;;;;;;4950234;28;20100;-71
2022/01/09 09:15:04;;;;;;;25.00;8.75;;;;;;;;;;4949593;28;20330;-72
2022/01/09 09:17:30;;;;;;;21.65;8.65;;;;;;;;;;4933215;28;20432;-71
2022/01/09 09:19:56;;;;;;;16.92;8.80;;;;;;;;;;4932289;28;20349;-71
2022/01/09 09:22:22;;;;;;;18.65;8.55;;;;;;;;;;4933081;28;20345;-71
2022/01/09 09:24:47;;;;;;;18.50;8.45;;;;;;;;;;4950011;28;20428;-71
2022/01/09 09:27:13;;;;;;;23.05;8.55;;;;;;;;;;4949732;28;20129;-72
2022/01/09 09:29:38;;;;;;;18.65;9.05;;;;;;;;;;4949682;28;20477;-71
2022/01/09 09:32:04;;;;;;;22.05;8.65;;;;;;;;;;4949741;28;20463;-72
2022/01/09 09:34:29;;;;;;;21.30;9.30;;;;;;;;;;4949771;28;20441;-72
2022/01/09 09:36:54;;;;;;;21.63;9.73;;;;;;;;;;4932665;28;20468;-71
2022/01/09 09:39:20;;;;;;;23.85;9.95;;;;;;;;;;4951497;28;20361;-71
2022/01/09 09:41:46;;;;;;;31.60;11.30;;;;;;;;;;4932489;28;20377;-71
2022/01/09 09:44:12;;;;;;;29.95;10.82;;;;;;;;;;4932358;28;20357;-71
2022/01/09 09:46:38;;;;;;;26.00;10.50;;;;;;;;;;4948951;28;20452;-71
2022/01/09 09:49:04;;;;;;;24.60;10.00;;;;;;;;;;4950030;28;20453;-72
2022/01/09 09:51:30;;;;;;;30.67;12.27;;;;;;;;;;4931534;28;20460;-71
2022/01/09 09:53:56;;;;;;;26.67;10.00;;;;;;;;;;4949848;28;20349;-72
2022/01/09 09:56:22;;;;;;;28.25;9.88;;;;;;;;;;4931849;28;20049;-71
2022/01/09 09:58:51;;;;;;;28.65;9.98;;;;;;;;;;4949711;28;20437;-71
2022/01/09 10:01:23;;;;;;;26.75;10.80;;;;;;;;;;4932461;28;20479;-71
2022/01/09 10:03:58;;;;;;;32.10;10.80;;;;;;;;;;4931891;28;20448;-71
2022/01/09 10:06:38;;;;;;;24.27;9.32;;;;;;;;;;4931848;28;20117;-71
2022/01/09 10:09:16;;;;;;;28.10;10.85;;;;;;;;;;4931615;28;20131;-72
2022/01/09 10:11:49;;;;;;;25.98;10.88;;;;;;;;;;4949579;28;20088;-72
2022/01/09 10:14:21;;;;;;;23.45;9.32;;;;;;;;;;4933675;28;20404;-71
2022/01/09 10:17:05;;;;;;;20.80;9.10;;;;;;;;;;4935515;28;20365;-72
2022/01/09 10:20:13;;;;;;;25.35;10.02;;;;;;;;;;4953373;28;20336;-71
2022/01/09 10:22:40;;;;;;;25.70;8.10;;;;;;;;;;4961742;28;20459;-72
2022/01/09 10:25:22;;;;;;;28.08;10.55;;;;;;;;;;4973232;28;20735;-72
2022/01/09 10:27:50;;;;;;;23.60;9.32;;;;;;;;;;4954511;28;20368;-72
2022/01/09 10:30:16;;;;;;;28.10;9.05;;;;;;;;;;4954645;28;20345;-72
2022/01/09 10:32:42;;;;;;;20.92;8.73;;;;;;;;;;4971884;28;20429;-72
2022/01/09 10:35:11;;;;;;;26.38;9.20;;;;;;;;;;4971836;28;20348;-73
2022/01/09 10:37:36;;;;;;;;;;;;;;;;;;4973401;28;20316;-72
2022/01/09 10:40:08;;;;;;;22.63;8.73;;;;;;;;;;4955052;28;20220;-72
2022/01/09 10:42:34;;;;;;;26.38;9.07;;;;;;;;;;4954794;28;20029;-72
2022/01/09 10:45:23;;;;;;;22.25;9.13;;;;;;;;;;4954589;28;20099;-73
2022/01/09 10:47:49;;;;;;;17.05;8.00;;;;;;;;;;4972450;28;20468;-72
2022/01/09 10:50:44;;;;;;;21.30;9.35;;;;;;;;;;4971850;28;20429;-72
2022/01/09 10:53:29;;;;;;;22.85;8.13;;;;;;;;;;4937306;28;20495;-72
2022/01/09 10:56:12;;;;;;;20.77;9.00;;;;;;;;;;4970288;28;20417;-72
2022/01/09 10:58:51;;;;;;;20.02;8.48;;;;;;;;;;4966942;28;20535;-72
2022/01/09 11:01:18;;;;;;;22.80;8.52;;;;;;;;;;4952890;28;20465;-72
2022/01/09 11:03:46;;;;;;;21.77;8.43;;;;;;;;;;4951844;28;20053;-72
2022/01/09 11:06:11;;;;;;;21.17;7.40;;;;;;;;;;4934570;28;20539;-73
2022/01/09 11:08:37;;;;;;;25.05;8.10;;;;;;;;;;4952551;28;20396;-72
2022/01/09 11:11:08;;;;;;;20.45;7.03;;;;;;;;;;4952294;28;20422;-72
2022/01/09 11:13:39;;;;;;;19.50;7.95;;;;;;;;;;4935069;28;20415;-72
2022/01/09 11:18:48;;;;;;;14.23;7.13;;;;;;;;;;4937129;28;20365;-73
2022/01/09 11:21:14;;;;;;;22.00;7.38;;;;;;;;;;4934223;28;20033;-72
2022/01/09 11:23:57;;;;;;;18.65;7.45;;;;;;;;;;4934285;28;20396;-72
2022/01/09 11:26:27;;;;;;;21.55;7.57;;;;;;;;;;4934730;28;20325;-73
2022/01/09 11:28:54;;;;;;;21.70;7.88;;;;;;;;;;4934079;28;20483;-73
2022/01/09 11:31:32;;;;;;;21.95;7.50;;;;;;;;;;4917475;28;20061;-72
2022/01/09 11:34:09;;;;;;;22.02;8.98;;;;;;;;;;4950439;28;20353;-72
2022/01/09 11:36:48;;;;;;;21.95;7.68;;;;;;;;;;4951746;28;20316;-72
2022/01/09 11:39:29;;;;;;;15.52;7.05;;;;;;;;;;4934499;28;20393;-73
2022/01/09 11:42:14;;;;;;;17.55;6.82;;;;;;;;;;4934760;28;20346;-72
2022/01/09 11:44:53;;;;;;;16.67;6.53;;;;;;;;;;4933436;28;20443;-72
2022/01/09 11:47:20;;;;;;;13.43;6.38;;;;;;;;;;4933931;28;20381;-72
2022/01/09 11:49:52;;;;;;;16.25;7.22;;;;;;;;;;4951030;28;20025;-72
2022/01/09 11:52:18;;;;;;;20.25;6.95;;;;;;;;;;4951215;28;20345;-72
2022/01/09 11:54:48;;;;;;;14.45;5.90;;;;;;;;;;4952390;28;20333;-72
2022/01/09 11:57:20;;;;;;;11.10;5.80;;;;;;;;;;4950842;28;20065;-72
2022/01/09 11:59:51;;;;;;;15.35;6.55;;;;;;;;;;4921141;28;20474;-73
2022/01/09 12:02:16;;;;;;;14.90;6.32;;;;;;;;;;4931465;28;20360;-72
2022/01/09 12:04:42;;;;;;;13.48;6.05;;;;;;;;;;4930617;28;20022;-72
2022/01/09 12:07:18;;;;;;;13.75;5.78;;;;;;;;;;4931603;28;20375;-73
2022/01/09 12:09:50;;;;;;;17.17;6.90;;;;;;;;;;4930149;28;20062;-72
2022/01/09 12:12:18;;;;;;;12.90;5.50;;;;;;;;;;4931361;28;20434;-72
2022/01/09 12:15:05;;;;;;;16.83;6.07;;;;;;;;;;4931545;28;20438;-72
2022/01/09 12:17:33;;;;;;;21.42;6.63;;;;;;;;;;4931320;28;20465;-73
2022/01/09 12:20:04;;;;;;;14.68;6.45;;;;;;;;;;4931139;28;20519;-72
2022/01/09 12:22:49;;;;;;;12.20;5.57;;;;;;;;;;4931220;28;20505;-73
2022/01/09 12:25:24;;;;;;;13.85;5.88;;;;;;;;;;4905936;28;20506;-72
2022/01/09 12:27:54;;;;;;;14.93;6.15;;;;;;;;;;4930914;28;20053;-73
2022/01/09 12:30:41;;;;;;;16.20;6.53;;;;;;;;;;4929924;28;20440;-73
2022/01/09 12:33:09;;;;;;;13.82;6.03;;;;;;;;;;4931769;28;20442;-72
2022/01/09 12:35:36;;;;;;;12.85;6.07;;;;;;;;;;4930268;28;20381;-72
2022/01/09 12:38:02;;;;;;;18.77;6.15;;;;;;;;;;4913159;28;20457;-72
2022/01/09 12:40:31;;;;;;;11.90;5.43;;;;;;;;;;4931030;28;20422;-72
2022/01/09 12:42:58;;;;;;;17.27;6.15;;;;;;;;;;4913333;28;20026;-72
2022/01/09 12:45:35;;;;;;;12.23;5.50;;;;;;;;;;4928910;28;20507;-72
2022/01/09 12:48:04;;;;;;;14.77;7.03;;;;;;;;;;4913313;28;20386;-72
2022/01/09 12:50:38;;;;;;;17.23;7.20;;;;;;;;;;4930672;28;20034;-72
2022/01/09 12:53:27;;;;;;;16.05;6.38;;;;;;;;;;4913203;28;20500;-73
2022/01/09 12:55:56;;;;;;;14.15;6.55;;;;;;;;;;4913818;28;20434;-73
2022/01/09 12:58:23;;;;;;;;;;;;;;;;;;4932645;28;20362;-72
2022/01/09 13:00:48;;;;;;;17.02;6.63;;;;;;;;;;4948667;28;20325;-72
2022/01/09 13:03:17;;;;;;;13.73;6.03;;;;;;;;;;4950644;28;20460;-73
2022/01/09 13:05:43;;;;;;;;;;;;;;;;;;4951566;28;20448;-72
2022/01/09 13:08:08;;;;;;;11.43;5.17;;;;;;;;;;4932122;28;20264;-72
2022/01/09 13:10:34;;;;;;;18.95;6.03;;;;;;;;;;4932506;28;20716;-72
2022/01/09 13:13:04;;;;;;;11.88;6.75;;;;;;;;;;4949458;28;20485;-72
2022/01/09 13:15:34;;;;;;;15.15;6.43;;;;;;;;;;4951211;28;20445;-72
2022/01/09 13:18:01;;;;;;;17.42;6.03;;;;;;;;;;4932111;28;20108;-73
2022/01/09 13:20:26;;;;;;;10.02;5.38;;;;;;;;;;4950198;28;20167;-73
2022/01/09 13:23:21;;;;;;;17.52;5.93;;;;;;;;;;4932747;28;20026;-72
2022/01/09 13:25:49;;;;;;;15.32;5.68;;;;;;;;;;4923528;28;20077;-73
2022/01/09 13:28:19;;;;;;;11.75;5.78;;;;;;;;;;4932465;28;20576;-74
2022/01/09 13:30:45;;;;;;;15.38;5.75;;;;;;;;;;4949242;28;20048;-73
2022/01/09 13:33:11;;;;;;;17.42;6.10;;;;;;;;;;4932107;28;20034;-72
2022/01/09 13:35:36;;;;;;;14.13;6.30;;;;;;;;;;4932513;28;20453;-72
2022/01/09 13:38:02;;;;;;;11.52;5.88;;;;;;;;;;4949612;28;20426;-72
2022/01/09 13:40:27;;;;;;;15.10;5.47;;;;;;;;;;4949637;28;20334;-73
2022/01/09 13:42:53;;;;;;;25.38;6.55;;;;;;;;;;4949437;28;20416;-72
2022/01/09 13:45:21;;;;;;;21.70;7.18;;;;;;;;;;4949415;28;20512;-72
2022/01/09 13:47:47;;;;;;;19.67;6.63;;;;;;;;;;4931913;28;20431;-72
2022/01/09 13:50:14;;;;;;;22.08;7.57;;;;;;;;;;4953442;28;20376;-73
2022/01/09 13:52:39;;;;;;;31.85;9.57;;;;;;;;;;4953545;28;20417;-71
2022/01/09 13:55:10;;;;;;;28.08;8.93;;;;;;;;;;4935426;28;20440;-72
2022/01/09 13:58:01;;;;;;;32.03;8.25;;;;;;;;;;4955271;28;20366;-72
2022/01/09 14:00:28;;;;;;;53.30;13.50;;;;;;;;;;4917722;28;20461;-72
2022/01/09 14:02:57;;;;;;;45.33;12.38;;;;;;;;;;4916148;28;20092;-72
2022/01/09 14:05:24;;;;;;;36.42;10.82;;;;;;;;;;4934261;28;20474;-72
2022/01/09 14:07:52;;;;;;;41.08;10.90;;;;;;;;;;4933778;28;20426;-71
2022/01/09 14:10:19;;;;;;;39.53;11.48;;;;;;;;;;4916304;28;20474;-73
2022/01/09 14:12:45;;;;;;;37.00;10.88;;;;;;;;;;4916567;28;20389;-72
2022/01/09 14:15:10;;;;;;;34.72;9.88;;;;;;;;;;4916658;28;20454;-72
2022/01/09 14:17:36;;;;;;;35.33;11.50;;;;;;;;;;4932090;28;20049;-72
2022/01/09 14:20:21;;;;;;;47.75;11.40;;;;;;;;;;4933944;28;20491;-72
2022/01/09 14:22:48;;;;;;;33.90;10.48;;;;;;;;;;4933579;28;20113;-72
2022/01/09 14:25:26;;;;;;;36.83;11.07;;;;;;;;;;4916181;28;20049;-72
2022/01/09 14:27:52;;;;;;;30.90;10.77;;;;;;;;;;4933582;28;20514;-71